sensor_id;sensor_type;location;lat;lon;timestamp;pressure;altitude;pressure_sealevel;temperature;humidity
14041;BME280;7095;51.388;6.196;2023-04-20T00:02:23;53749.59;;;-145.32;51.54
14041;BME280;7095;51.388;6.196;2023-04-20T00:04:52;53735.69;;;-145.32;51.94
14041;BME280;7095;51.388;6.196;2023-04-20T00:07:20;53743.66;;;-145.32;52.25
14041;BME280;7095;51.388;6.196;2023-04-20T00:09:50;53745.63;;;-145.32;52.30
14041;BME280;7095;51.388;6.196;2023-04-20T00:12:19;53757.56;;;-145.32;51.90
14041;BME280;7095;51.388;6.196;2023-04-20T00:14:47;53741.66;;;-145.32;51.83
14041;BME280;7095;51.388;6.196;2023-04-20T00:17:17;53755.56;;;-145.32;52.97
14041;BME280;7095;51.388;6.196;2023-04-20T00:19:45;53777.44;;;-145.32;52.41
14041;BME280;7095;51.388;6.196;2023-04-20T00:22:14;53755.56;;;-145.32;52.18
14041;BME280;7095;51.388;6.196;2023-04-20T00:24:42;53755.56;;;-145.32;52.78
14041;BME280;7095;51.388;6.196;2023-04-20T00:27:10;53765.50;;;-145.32;52.25
14041;BME280;7095;51.388;6.196;2023-04-20T00:29:39;53773.47;;;-145.32;53.00
14041;BME280;7095;51.388;6.196;2023-04-20T00:32:07;53731.72;;;-145.32;52.43
14041;BME280;7095;51.388;6.196;2023-04-20T00:34:37;53741.66;;;-145.32;52.49
14041;BME280;7095;51.388;6.196;2023-04-20T00:37:06;53773.47;;;-145.32;52.46
14041;BME280;7095;51.388;6.196;2023-04-20T00:39:34;53751.59;;;-145.32;52.67
14041;BME280;7095;51.388;6.196;2023-04-20T00:42:03;53757.56;;;-145.32;53.10
14041;BME280;7095;51.388;6.196;2023-04-20T00:44:32;53753.59;;;-145.32;52.84
14041;BME280;7095;51.388;6.196;2023-04-20T00:47:01;53753.59;;;-145.32;51.94
14041;BME280;7095;51.388;6.196;2023-04-20T00:49:32;53775.47;;;-145.32;52.04
14041;BME280;7095;51.388;6.196;2023-04-20T00:52:02;53789.38;;;-145.32;52.32
14041;BME280;7095;51.388;6.196;2023-04-20T00:54:30;53733.69;;;-145.32;52.37
14041;BME280;7095;51.388;6.196;2023-04-20T00:56:59;53765.50;;;-145.32;51.86
14041;BME280;7095;51.388;6.196;2023-04-20T00:59:28;53733.69;;;-145.32;51.66
14041;BME280;7095;51.388;6.196;2023-04-20T01:01:57;53747.63;;;-145.32;52.04
14041;BME280;7095;51.388;6.196;2023-04-20T01:04:26;53765.50;;;-145.32;51.99
14041;BME280;7095;51.388;6.196;2023-04-20T01:06:56;53773.47;;;-145.32;51.45
14041;BME280;7095;51.388;6.196;2023-04-20T01:09:26;53763.53;;;-145.32;50.45
14041;BME280;7095;51.388;6.196;2023-04-20T01:11:54;53757.56;;;-145.32;50.52
14041;BME280;7095;51.388;6.196;2023-04-20T01:14:23;53737.69;;;-145.32;50.41
14041;BME280;7095;51.388;6.196;2023-04-20T01:16:51;53737.69;;;-145.32;49.96
14041;BME280;7095;51.388;6.196;2023-04-20T01:19:20;53737.69;;;-145.32;49.74
14041;BME280;7095;51.388;6.196;2023-04-20T01:21:48;53761.53;;;-145.32;50.33
14041;BME280;7095;51.388;6.196;2023-04-20T01:24:18;53785.41;;;-145.32;50.17
14041;BME280;7095;51.388;6.196;2023-04-20T01:26:47;53749.59;;;-145.32;49.98
14041;BME280;7095;51.388;6.196;2023-04-20T01:29:15;53759.56;;;-145.32;50.45
14041;BME280;7095;51.388;6.196;2023-04-20T01:31:44;53731.72;;;-145.32;50.03
14041;BME280;7095;51.388;6.196;2023-04-20T01:34:15;53745.63;;;-145.32;49.99
14041;BME280;7095;51.388;6.196;2023-04-20T01:36:44;53743.66;;;-145.32;50.33
14041;BME280;7095;51.388;6.196;2023-04-20T01:39:13;53761.53;;;-145.32;50.05
14041;BME280;7095;51.388;6.196;2023-04-20T01:41:44;53755.56;;;-145.32;50.55
14041;BME280;7095;51.388;6.196;2023-04-20T01:44:12;53717.78;;;-145.32;50.38
14041;BME280;7095;51.388;6.196;2023-04-20T01:46:41;53749.59;;;-145.32;50.60
14041;BME280;7095;51.388;6.196;2023-04-20T01:49:09;53733.69;;;-145.32;50.52
14041;BME280;7095;51.388;6.196;2023-04-20T01:51:38;53733.69;;;-145.32;50.80
14041;BME280;7095;51.388;6.196;2023-04-20T01:54:06;53745.63;;;-145.32;50.48
14041;BME280;7095;51.388;6.196;2023-04-20T01:56:34;53761.53;;;-145.32;50.92
14041;BME280;7095;51.388;6.196;2023-04-20T01:59:04;53773.47;;;-145.32;50.42
14041;BME280;7095;51.388;6.196;2023-04-20T02:01:32;53741.66;;;-145.32;50.70
14041;BME280;7095;51.388;6.196;2023-04-20T02:04:01;53717.78;;;-145.32;50.17
14041;BME280;7095;51.388;6.196;2023-04-20T02:06:29;53765.50;;;-145.32;49.61
14041;BME280;7095;51.388;6.196;2023-04-20T02:08:59;53713.81;;;-145.32;49.71
14041;BME280;7095;51.388;6.196;2023-04-20T02:11:27;53737.69;;;-145.32;50.21
14041;BME280;7095;51.388;6.196;2023-04-20T02:13:56;53733.69;;;-145.32;50.50
14041;BME280;7095;51.388;6.196;2023-04-20T02:16:25;53749.59;;;-145.32;50.59
14041;BME280;7095;51.388;6.196;2023-04-20T02:18:55;53761.53;;;-145.32;50.87
14041;BME280;7095;51.388;6.196;2023-04-20T02:21:23;53715.81;;;-145.32;50.79
14041;BME280;7095;51.388;6.196;2023-04-20T02:23:52;53737.69;;;-145.32;50.78
14041;BME280;7095;51.388;6.196;2023-04-20T02:26:21;53745.63;;;-145.32;51.26
14041;BME280;7095;51.388;6.196;2023-04-20T02:28:49;53763.53;;;-145.32;51.31
14041;BME280;7095;51.388;6.196;2023-04-20T02:31:17;53717.78;;;-145.32;51.33
14041;BME280;7095;51.388;6.196;2023-04-20T02:33:47;53729.72;;;-145.32;51.23
14041;BME280;7095;51.388;6.196;2023-04-20T02:36:18;53751.59;;;-145.32;51.68
14041;BME280;7095;51.388;6.196;2023-04-20T02:38:46;53727.75;;;-145.32;52.73
14041;BME280;7095;51.388;6.196;2023-04-20T02:41:15;53745.63;;;-145.32;52.67
14041;BME280;7095;51.388;6.196;2023-04-20T02:43:43;53749.59;;;-145.32;52.68
14041;BME280;7095;51.388;6.196;2023-04-20T02:46:11;53745.63;;;-145.32;52.86
14041;BME280;7095;51.388;6.196;2023-04-20T02:48:40;53715.81;;;-145.32;53.08
14041;BME280;7095;51.388;6.196;2023-04-20T02:51:10;53731.72;;;-145.32;53.06
14041;BME280;7095;51.388;6.196;2023-04-20T02:53:42;53723.75;;;-145.32;53.69
14041;BME280;7095;51.388;6.196;2023-04-20T02:56:22;53729.72;;;-145.32;54.08
14041;BME280;7095;51.388;6.196;2023-04-20T02:58:54;53735.69;;;-145.32;54.08
14041;BME280;7095;51.388;6.196;2023-04-20T03:01:29;53715.81;;;-145.32;55.23
14041;BME280;7095;51.388;6.196;2023-04-20T03:04:10;53747.63;;;-145.32;55.69
14041;BME280;7095;51.388;6.196;2023-04-20T03:06:48;53715.81;;;-145.32;55.96
14041;BME280;7095;51.388;6.196;2023-04-20T03:09:23;53721.78;;;-145.32;56.19
14041;BME280;7095;51.388;6.196;2023-04-20T03:12:14;53729.72;;;-145.32;57.02
14041;BME280;7095;51.388;6.196;2023-04-20T03:15:03;53753.59;;;-145.32;57.59
14041;BME280;7095;51.388;6.196;2023-04-20T03:17:44;53721.78;;;-145.32;57.86
14041;BME280;7095;51.388;6.196;2023-04-20T03:20:14;53721.78;;;-145.32;58.20
14041;BME280;7095;51.388;6.196;2023-04-20T03:22:43;53715.81;;;-145.32;59.56
14041;BME280;7095;51.388;6.196;2023-04-20T03:25:12;53737.69;;;-145.32;60.00
14041;BME280;7095;51.388;6.196;2023-04-20T03:28:07;53709.84;;;-145.32;60.42
14041;BME280;7095;51.388;6.196;2023-04-20T03:30:37;53749.59;;;-145.32;61.35
14041;BME280;7095;51.388;6.196;2023-04-20T03:33:12;53725.75;;;-145.32;61.91
14041;BME280;7095;51.388;6.196;2023-04-20T03:35:41;53719.78;;;-145.32;62.07
14041;BME280;7095;51.388;6.196;2023-04-20T03:38:32;53725.75;;;-145.32;62.72
14041;BME280;7095;51.388;6.196;2023-04-20T03:41:00;53717.78;;;-145.32;62.97
14041;BME280;7095;51.388;6.196;2023-04-20T03:43:29;53757.56;;;-145.32;63.25
14041;BME280;7095;51.388;6.196;2023-04-20T03:45:57;53741.66;;;-145.32;64.00
14041;BME280;7095;51.388;6.196;2023-04-20T03:48:26;53725.75;;;-145.32;65.35
14041;BME280;7095;51.388;6.196;2023-04-20T03:50:54;53721.78;;;-145.32;65.80
14041;BME280;7095;51.388;6.196;2023-04-20T03:53:23;53749.59;;;-145.32;66.97
14041;BME280;7095;51.388;6.196;2023-04-20T03:55:53;53741.66;;;-145.32;67.39
14041;BME280;7095;51.388;6.196;2023-04-20T03:58:21;53735.69;;;-145.32;68.28
14041;BME280;7095;51.388;6.196;2023-04-20T04:01:09;53755.56;;;-145.32;68.95
14041;BME280;7095;51.388;6.196;2023-04-20T04:03:43;53731.72;;;-145.32;69.63
14041;BME280;7095;51.388;6.196;2023-04-20T04:06:12;53735.69;;;-145.32;69.58
14041;BME280;7095;51.388;6.196;2023-04-20T04:08:40;53727.75;;;-145.32;70.11
14041;BME280;7095;51.388;6.196;2023-04-20T04:11:10;53723.75;;;-145.32;71.61
14041;BME280;7095;51.388;6.196;2023-04-20T04:13:39;53755.56;;;-145.32;72.10
14041;BME280;7095;51.388;6.196;2023-04-20T04:16:08;53743.66;;;-145.32;72.68
14041;BME280;7095;51.388;6.196;2023-04-20T04:18:41;53717.78;;;-145.32;73.84
14041;BME280;7095;51.388;6.196;2023-04-20T04:21:10;53733.69;;;-145.32;74.44
14041;BME280;7095;51.388;6.196;2023-04-20T04:23:42;53723.75;;;-145.32;75.44
14041;BME280;7095;51.388;6.196;2023-04-20T04:26:20;53729.72;;;-145.32;77.34
14041;BME280;7095;51.388;6.196;2023-04-20T04:28:51;53717.78;;;-145.32;78.16
14041;BME280;7095;51.388;6.196;2023-04-20T04:31:21;53727.75;;;-145.32;79.18
14041;BME280;7095;51.388;6.196;2023-04-20T04:33:50;53753.59;;;-145.32;79.98
14041;BME280;7095;51.388;6.196;2023-04-20T04:36:32;53751.59;;;-145.32;80.45
14041;BME280;7095;51.388;6.196;2023-04-20T04:39:04;53765.50;;;-145.32;81.12
14041;BME280;7095;51.388;6.196;2023-04-20T04:41:34;53753.59;;;-145.32;82.54
14041;BME280;7095;51.388;6.196;2023-04-20T04:44:13;53749.59;;;-145.32;82.58
14041;BME280;7095;51.388;6.196;2023-04-20T04:46:42;53761.53;;;-145.32;83.19
14041;BME280;7095;51.388;6.196;2023-04-20T04:49:13;53753.59;;;-145.32;83.94
14041;BME280;7095;51.388;6.196;2023-04-20T04:51:42;53723.75;;;-145.32;85.26
14041;BME280;7095;51.388;6.196;2023-04-20T04:54:11;53733.69;;;-145.32;85.95
14041;BME280;7095;51.388;6.196;2023-04-20T04:56:41;53701.88;;;-145.32;86.26
14041;BME280;7095;51.388;6.196;2023-04-20T04:59:09;53729.72;;;-145.32;86.82
14041;BME280;7095;51.388;6.196;2023-04-20T05:01:38;53711.84;;;-145.32;87.59
14041;BME280;7095;51.388;6.196;2023-04-20T05:04:07;53721.78;;;-145.32;86.88
14041;BME280;7095;51.388;6.196;2023-04-20T05:06:35;53741.66;;;-145.32;87.83
14041;BME280;7095;51.388;6.196;2023-04-20T05:09:04;53707.84;;;-145.32;88.52
14041;BME280;7095;51.388;6.196;2023-04-20T05:11:32;53701.88;;;-145.32;88.70
14041;BME280;7095;51.388;6.196;2023-04-20T05:14:02;53721.78;;;-145.32;89.67
14041;BME280;7095;51.388;6.196;2023-04-20T05:16:30;53727.75;;;-145.32;89.96
14041;BME280;7095;51.388;6.196;2023-04-20T05:18:59;53751.59;;;-145.32;90.90
14041;BME280;7095;51.388;6.196;2023-04-20T05:21:27;53672.06;;;-145.32;91.32
14041;BME280;7095;51.388;6.196;2023-04-20T05:23:56;53693.94;;;-145.32;91.44
14041;BME280;7095;51.388;6.196;2023-04-20T05:26:24;53699.91;;;-145.32;90.65
14041;BME280;7095;51.388;6.196;2023-04-20T05:28:52;53693.94;;;-145.32;91.05
14041;BME280;7095;51.388;6.196;2023-04-20T05:31:22;53682.00;;;-145.32;92.19
14041;BME280;7095;51.388;6.196;2023-04-20T05:33:52;53695.94;;;-145.32;92.78
14041;BME280;7095;51.388;6.196;2023-04-20T05:36:20;53695.94;;;-145.32;93.48
14041;BME280;7095;51.388;6.196;2023-04-20T05:38:49;53713.81;;;-145.32;94.64
14041;BME280;7095;51.388;6.196;2023-04-20T05:41:17;53717.78;;;-145.32;95.30
14041;BME280;7095;51.388;6.196;2023-04-20T05:43:46;53729.72;;;-145.32;95.37
14041;BME280;7095;51.388;6.196;2023-04-20T05:46:14;53682.00;;;-145.32;96.32
14041;BME280;7095;51.388;6.196;2023-04-20T05:48:44;53723.75;;;-145.32;97.41
14041;BME280;7095;51.388;6.196;2023-04-20T05:51:13;53729.72;;;-145.32;97.39
14041;BME280;7095;51.388;6.196;2023-04-20T05:53:41;53697.91;;;-145.32;99.26
14041;BME280;7095;51.388;6.196;2023-04-20T05:56:10;53725.75;;;-145.32;100.00
14041;BME280;7095;51.388;6.196;2023-04-20T05:58:39;53693.94;;;-145.32;100.00
14041;BME280;7095;51.388;6.196;2023-04-20T06:01:08;53707.84;;;-145.32;100.00
14041;BME280;7095;51.388;6.196;2023-04-20T06:03:37;53711.84;;;-145.32;100.00
14041;BME280;7095;51.388;6.196;2023-04-20T06:06:07;53721.78;;;-145.32;100.00
14041;BME280;7095;51.388;6.196;2023-04-20T06:08:35;53723.75;;;-145.32;100.00
14041;BME280;7095;51.388;6.196;2023-04-20T06:11:04;53737.69;;;-145.32;100.00
14041;BME280;7095;51.388;6.196;2023-04-20T06:13:33;53721.78;;;-145.32;100.00
14041;BME280;7095;51.388;6.196;2023-04-20T06:16:01;53717.78;;;-145.32;100.00
14041;BME280;7095;51.388;6.196;2023-04-20T06:18:30;53682.00;;;-145.32;100.00
14041;BME280;7095;51.388;6.196;2023-04-20T06:20:58;53721.78;;;-145.32;100.00
14041;BME280;7095;51.388;6.196;2023-04-20T06:23:29;53713.81;;;-145.32;100.00
14041;BME280;7095;51.388;6.196;2023-04-20T06:25:57;53741.66;;;-145.32;100.00
14041;BME280;7095;51.388;6.196;2023-04-20T06:28:26;53709.84;;;-145.32;100.00
14041;BME280;7095;51.388;6.196;2023-04-20T06:30:54;53721.78;;;-145.32;100.00
14041;BME280;7095;51.388;6.196;2023-04-20T06:33:23;53711.84;;;-145.32;100.00
14041;BME280;7095;51.388;6.196;2023-04-20T06:35:51;53725.75;;;-145.32;100.00
14041;BME280;7095;51.388;6.196;2023-04-20T06:38:20;53723.75;;;-145.32;100.00
14041;BME280;7095;51.388;6.196;2023-04-20T06:40:50;53713.81;;;-145.32;100.00
14041;BME280;7095;51.388;6.196;2023-04-20T06:43:19;53715.81;;;-145.32;100.00
14041;BME280;7095;51.388;6.196;2023-04-20T06:45:47;53689.97;;;-145.32;100.00
14041;BME280;7095;51.388;6.196;2023-04-20T06:48:15;53733.69;;;-145.32;100.00
14041;BME280;7095;51.388;6.196;2023-04-20T06:50:59;53721.78;;;-145.32;100.00
14041;BME280;7095;51.388;6.196;2023-04-20T06:53:27;53723.75;;;-145.32;100.00
14041;BME280;7095;51.388;6.196;2023-04-20T06:55:57;53735.69;;;-145.32;100.00
14041;BME280;7095;51.388;6.196;2023-04-20T06:58:26;53745.63;;;-145.32;100.00
14041;BME280;7095;51.388;6.196;2023-04-20T07:00:54;53741.66;;;-145.32;100.00
14041;BME280;7095;51.388;6.196;2023-04-20T07:03:22;53697.91;;;-145.32;100.00
14041;BME280;7095;51.388;6.196;2023-04-20T07:05:51;53717.78;;;-145.32;100.00
14041;BME280;7095;51.388;6.196;2023-04-20T07:08:20;53725.75;;;-145.32;100.00
14041;BME280;7095;51.388;6.196;2023-04-20T07:10:48;53741.66;;;-145.32;100.00
14041;BME280;7095;51.388;6.196;2023-04-20T07:13:21;53755.56;;;-145.32;100.00
14041;BME280;7095;51.388;6.196;2023-04-20T07:15:50;53715.81;;;-145.32;100.00
14041;BME280;7095;51.388;6.196;2023-04-20T07:18:19;53729.72;;;-145.32;100.00
14041;BME280;7095;51.388;6.196;2023-04-20T07:20:47;53727.75;;;-145.32;100.00
14041;BME280;7095;51.388;6.196;2023-04-20T07:23:16;53695.94;;;-145.32;100.00
14041;BME280;7095;51.388;6.196;2023-04-20T07:25:44;53721.78;;;-145.32;100.00
14041;BME280;7095;51.388;6.196;2023-04-20T07:28:13;53674.06;;;-145.32;100.00
14041;BME280;7095;51.388;6.196;2023-04-20T07:30:43;53666.09;;;-145.32;100.00
14041;BME280;7095;51.388;6.196;2023-04-20T07:33:11;53699.91;;;-145.32;100.00
14041;BME280;7095;51.388;6.196;2023-04-20T07:35:39;53729.72;;;-145.32;100.00
14041;BME280;7095;51.388;6.196;2023-04-20T07:38:09;53695.94;;;-145.32;100.00
14041;BME280;7095;51.388;6.196;2023-04-20T07:40:38;53693.94;;;-145.32;100.00
14041;BME280;7095;51.388;6.196;2023-04-20T07:43:06;53723.75;;;-145.32;100.00
14041;BME280;7095;51.388;6.196;2023-04-20T07:45:38;53672.06;;;-145.32;100.00
14041;BME280;7095;51.388;6.196;2023-04-20T07:48:08;53723.75;;;-145.32;100.00
14041;BME280;7095;51.388;6.196;2023-04-20T07:50:38;53745.63;;;-145.32;100.00
14041;BME280;7095;51.388;6.196;2023-04-20T07:53:07;53745.63;;;-145.32;100.00
14041;BME280;7095;51.388;6.196;2023-04-20T07:55:35;53717.78;;;-145.32;100.00
14041;BME280;7095;51.388;6.196;2023-04-20T07:58:04;53731.72;;;-145.32;100.00
14041;BME280;7095;51.388;6.196;2023-04-20T08:00:32;53737.69;;;-145.32;100.00
14041;BME280;7095;51.388;6.196;2023-04-20T08:03:01;53745.63;;;-145.32;100.00
14041;BME280;7095;51.388;6.196;2023-04-20T08:05:31;53721.78;;;-145.32;100.00
14041;BME280;7095;51.388;6.196;2023-04-20T08:08:00;53727.75;;;-145.32;100.00
14041;BME280;7095;51.388;6.196;2023-04-20T08:10:28;53721.78;;;-145.32;100.00
14041;BME280;7095;51.388;6.196;2023-04-20T08:12:57;53691.94;;;-145.32;100.00
14041;BME280;7095;51.388;6.196;2023-04-20T08:15:25;53737.69;;;-145.32;100.00
14041;BME280;7095;51.388;6.196;2023-04-20T08:17:54;53707.84;;;-145.32;100.00
14041;BME280;7095;51.388;6.196;2023-04-20T08:20:22;53701.88;;;-145.32;100.00
14041;BME280;7095;51.388;6.196;2023-04-20T08:22:52;53713.81;;;-145.32;100.00
14041;BME280;7095;51.388;6.196;2023-04-20T08:25:21;53721.78;;;-145.32;100.00
14041;BME280;7095;51.388;6.196;2023-04-20T08:27:52;53703.88;;;-145.32;100.00
14041;BME280;7095;51.388;6.196;2023-04-20T08:30:20;53721.78;;;-145.32;100.00
14041;BME280;7095;51.388;6.196;2023-04-20T08:32:48;53711.84;;;-145.32;100.00
14041;BME280;7095;51.388;6.196;2023-04-20T08:35:17;53719.78;;;-145.32;100.00
14041;BME280;7095;51.388;6.196;2023-04-20T08:37:46;53727.75;;;-145.32;100.00
14041;BME280;7095;51.388;6.196;2023-04-20T08:40:16;53697.91;;;-145.32;100.00
14041;BME280;7095;51.388;6.196;2023-04-20T08:42:46;53711.84;;;-145.32;100.00
14041;BME280;7095;51.388;6.196;2023-04-20T08:45:14;53670.09;;;-145.32;100.00
14041;BME280;7095;51.388;6.196;2023-04-20T08:47:43;53741.66;;;-145.32;100.00
14041;BME280;7095;51.388;6.196;2023-04-20T08:50:12;53662.13;;;-145.32;100.00
14041;BME280;7095;51.388;6.196;2023-04-20T08:52:41;53682.00;;;-145.32;100.00
14041;BME280;7095;51.388;6.196;2023-04-20T08:55:09;53676.03;;;-145.32;100.00
14041;BME280;7095;51.388;6.196;2023-04-20T08:57:39;53658.16;;;-145.32;100.00
14041;BME280;7095;51.388;6.196;2023-04-20T09:00:09;53689.97;;;-145.32;100.00
14041;BME280;7095;51.388;6.196;2023-04-20T09:02:49;53668.09;;;-145.32;100.00
14041;BME280;7095;51.388;6.196;2023-04-20T09:05:25;53664.13;;;-145.32;100.00
14041;BME280;7095;51.388;6.196;2023-04-20T09:07:56;53668.09;;;-145.32;100.00
14041;BME280;7095;51.388;6.196;2023-04-20T09:10:25;53654.19;;;-145.32;100.00
14041;BME280;7095;51.388;6.196;2023-04-20T09:12:56;53636.28;;;-145.32;100.00
14041;BME280;7095;51.388;6.196;2023-04-20T09:15:25;53604.47;;;-145.32;100.00
14041;BME280;7095;51.388;6.196;2023-04-20T09:17:53;53632.31;;;-145.32;100.00
14041;BME280;7095;51.388;6.196;2023-04-20T09:20:29;53626.34;;;-145.32;95.63
14041;BME280;7095;51.388;6.196;2023-04-20T09:23:09;53618.38;;;-145.32;94.27
14041;BME280;7095;51.388;6.196;2023-04-20T09:25:38;53598.50;;;-145.32;94.27
14041;BME280;7095;51.388;6.196;2023-04-20T09:28:12;53642.25;;;-145.32;94.38
14041;BME280;7095;51.388;6.196;2023-04-20T09:30:43;53630.31;;;-145.32;95.14
14041;BME280;7095;51.388;6.196;2023-04-20T09:33:12;53630.31;;;-145.32;94.32
14041;BME280;7095;51.388;6.196;2023-04-20T09:35:42;53624.34;;;-145.32;94.75
14041;BME280;7095;51.388;6.196;2023-04-20T09:38:15;53602.47;;;-145.32;94.75
14041;BME280;7095;51.388;6.196;2023-04-20T09:40:44;53622.38;;;-145.32;94.28
14041;BME280;7095;51.388;6.196;2023-04-20T09:43:17;53630.31;;;-145.32;94.33
14041;BME280;7095;51.388;6.196;2023-04-20T09:45:46;53630.31;;;-145.32;93.18
14041;BME280;7095;51.388;6.196;2023-04-20T09:48:16;53644.22;;;-145.32;93.38
14041;BME280;7095;51.388;6.196;2023-04-20T09:50:47;53600.50;;;-145.32;93.50
14041;BME280;7095;51.388;6.196;2023-04-20T09:53:18;53654.19;;;-145.32;93.22
14041;BME280;7095;51.388;6.196;2023-04-20T09:55:47;53654.19;;;-145.32;93.21
14041;BME280;7095;51.388;6.196;2023-04-20T09:58:19;53646.22;;;-145.32;94.81
14041;BME280;7095;51.388;6.196;2023-04-20T10:00:48;53654.19;;;-145.32;95.47
14041;BME280;7095;51.388;6.196;2023-04-20T10:03:17;53628.31;;;-145.32;95.76
14041;BME280;7095;51.388;6.196;2023-04-20T10:05:46;53654.19;;;-145.32;97.42
14041;BME280;7095;51.388;6.196;2023-04-20T10:08:18;53693.94;;;-145.32;97.90
14041;BME280;7095;51.388;6.196;2023-04-20T10:10:48;53630.31;;;-145.32;98.77
14041;BME280;7095;51.388;6.196;2023-04-20T10:13:19;53650.19;;;-145.32;99.69
14041;BME280;7095;51.388;6.196;2023-04-20T10:15:49;53646.22;;;-145.32;98.85
14041;BME280;7095;51.388;6.196;2023-04-20T10:18:19;53678.03;;;-145.32;98.88
14041;BME280;7095;51.388;6.196;2023-04-20T10:20:50;53648.22;;;-145.32;99.54
14041;BME280;7095;51.388;6.196;2023-04-20T10:23:19;53686.00;;;-145.32;100.00
14041;BME280;7095;51.388;6.196;2023-04-20T10:25:54;53674.06;;;-145.32;100.00
14041;BME280;7095;51.388;6.196;2023-04-20T10:28:36;53682.00;;;-145.32;100.00
14041;BME280;7095;51.388;6.196;2023-04-20T10:31:07;53693.94;;;-145.32;100.00
14041;BME280;7095;51.388;6.196;2023-04-20T10:33:52;53729.72;;;-145.32;100.00
14041;BME280;7095;51.388;6.196;2023-04-20T10:36:27;53717.78;;;-145.32;100.00
14041;BME280;7095;51.388;6.196;2023-04-20T10:38:56;53761.53;;;-145.32;100.00
14041;BME280;7095;51.388;6.196;2023-04-20T10:41:24;53789.38;;;-145.32;100.00
14041;BME280;7095;51.388;6.196;2023-04-20T10:43:54;53837.09;;;-145.32;100.00
14041;BME280;7095;51.388;6.196;2023-04-20T10:46:33;53952.41;;;-145.32;100.00
14041;BME280;7095;51.388;6.196;2023-04-20T10:49:02;54008.09;;;-145.32;100.00
14041;BME280;7095;51.388;6.196;2023-04-20T10:51:31;54117.44;;;-145.32;100.00
14041;BME280;7095;51.388;6.196;2023-04-20T10:54:00;54240.72;;;-145.32;100.00
14041;BME280;7095;51.388;6.196;2023-04-20T10:56:38;54477.38;;;-145.32;100.00
14041;BME280;7095;51.388;6.196;2023-04-20T10:59:09;54360.03;;;-145.32;100.00
14041;BME280;7095;51.388;6.196;2023-04-20T11:01:38;54537.03;;;-145.32;100.00
14041;BME280;7095;51.388;6.196;2023-04-20T11:04:07;54773.69;;;-145.32;100.00
14041;BME280;7095;51.388;6.196;2023-04-20T11:06:37;54634.47;;;-145.32;100.00
14041;BME280;7095;51.388;6.196;2023-04-20T11:09:17;54439.59;;;-145.32;100.00
14041;BME280;7095;51.388;6.196;2023-04-20T11:11:57;54576.81;;;-145.32;100.00
14041;BME280;7095;51.388;6.196;2023-04-20T11:14:27;54495.28;;;-145.32;100.00
14041;BME280;7095;51.388;6.196;2023-04-20T11:16:56;54489.31;;;-145.32;100.00
14041;BME280;7095;51.388;6.196;2023-04-20T11:19:27;54437.59;;;-145.32;100.00
14041;BME280;7095;51.388;6.196;2023-04-20T11:21:55;54366.00;;;-145.32;100.00
14041;BME280;7095;51.388;6.196;2023-04-20T11:24:25;54242.72;;;-145.32;100.00
14041;BME280;7095;51.388;6.196;2023-04-20T11:26:54;54254.66;;;-145.32;100.00
14041;BME280;7095;51.388;6.196;2023-04-20T11:29:29;54264.59;;;-145.32;100.00
14041;BME280;7095;51.388;6.196;2023-04-20T11:32:00;54175.13;;;-145.32;100.00
14041;BME280;7095;51.388;6.196;2023-04-20T11:34:30;54238.75;;;-145.32;100.00
14041;BME280;7095;51.388;6.196;2023-04-20T11:37:02;54113.47;;;-145.32;100.00
14041;BME280;7095;51.388;6.196;2023-04-20T11:39:32;54087.63;;;-145.32;100.00
14041;BME280;7095;51.388;6.196;2023-04-20T11:42:01;54115.47;;;-145.32;100.00
14041;BME280;7095;51.388;6.196;2023-04-20T11:44:31;54095.56;;;-145.32;100.00
14041;BME280;7095;51.388;6.196;2023-04-20T11:47:03;54059.78;;;-145.32;100.00
14041;BME280;7095;51.388;6.196;2023-04-20T11:49:32;54063.75;;;-145.32;100.00
14041;BME280;7095;51.388;6.196;2023-04-20T11:52:00;54051.81;;;-145.32;100.00
14041;BME280;7095;51.388;6.196;2023-04-20T11:54:29;54071.72;;;-145.32;100.00
14041;BME280;7095;51.388;6.196;2023-04-20T11:57:00;54089.59;;;-145.32;100.00
14041;BME280;7095;51.388;6.196;2023-04-20T11:59:28;54099.56;;;-145.32;100.00
14041;BME280;7095;51.388;6.196;2023-04-20T12:01:59;54063.75;;;-145.32;100.00
14041;BME280;7095;51.388;6.196;2023-04-20T12:04:30;54125.41;;;-145.32;100.00
14041;BME280;7095;51.388;6.196;2023-04-20T12:07:00;54139.31;;;-145.32;100.00
14041;BME280;7095;51.388;6.196;2023-04-20T12:09:29;54045.88;;;-145.32;100.00
14041;BME280;7095;51.388;6.196;2023-04-20T12:12:02;53950.44;;;-145.32;100.00
14041;BME280;7095;51.388;6.196;2023-04-20T12:14:30;53920.59;;;-145.32;100.00
14041;BME280;7095;51.388;6.196;2023-04-20T12:17:02;53904.69;;;-145.32;100.00
14041;BME280;7095;51.388;6.196;2023-04-20T12:19:31;53862.94;;;-145.32;100.00
14041;BME280;7095;51.388;6.196;2023-04-20T12:21:59;53767.50;;;-145.32;100.00
14041;BME280;7095;51.388;6.196;2023-04-20T12:24:28;53759.56;;;-145.32;100.00
14041;BME280;7095;51.388;6.196;2023-04-20T12:26:56;53741.66;;;-145.32;100.00
14041;BME280;7095;51.388;6.196;2023-04-20T12:29:25;53717.78;;;-145.32;100.00
14041;BME280;7095;51.388;6.196;2023-04-20T12:31:54;53721.78;;;-145.32;100.00
14041;BME280;7095;51.388;6.196;2023-04-20T12:34:24;53727.75;;;-145.32;100.00
14041;BME280;7095;51.388;6.196;2023-04-20T12:36:53;53755.56;;;-145.32;100.00
14041;BME280;7095;51.388;6.196;2023-04-20T12:39:22;53709.84;;;-145.32;100.00
14041;BME280;7095;51.388;6.196;2023-04-20T12:41:51;53747.63;;;-145.32;100.00
14041;BME280;7095;51.388;6.196;2023-04-20T12:44:19;53686.00;;;-145.32;100.00
14041;BME280;7095;51.388;6.196;2023-04-20T12:46:48;53689.97;;;-145.32;100.00
14041;BME280;7095;51.388;6.196;2023-04-20T12:49:17;53652.19;;;-145.32;100.00
14041;BME280;7095;51.388;6.196;2023-04-20T12:51:47;53654.19;;;-145.32;100.00
14041;BME280;7095;51.388;6.196;2023-04-20T12:54:15;53650.19;;;-145.32;100.00
14041;BME280;7095;51.388;6.196;2023-04-20T12:56:44;53630.31;;;-145.32;100.00
14041;BME280;7095;51.388;6.196;2023-04-20T12:59:13;53640.25;;;-145.32;100.00
14041;BME280;7095;51.388;6.196;2023-04-20T13:01:42;53668.09;;;-145.32;100.00